CheckWX is a tool to help pilots better visualize weather data.  It is not intended as a substitute for an official pre-flight weather briefing.

18:16:28 UTC

KGRR TAF
Gerald R. Ford International Airport
Grand Rapids, Michigan, USA
KGRR 112340Z 1200/1224 29010G18KT P6SM SCT050 FM120100 28004KT P6SM SKC FM121600 35012G20KT P6SM BKN040

Jul-12@
00:00 UTC

Jul-12 @ 00:00 UTC

Jul-12@
01:00 UTC

Jul-12 @ 01:00 UTC

TAF KGRR 112340Z 1200/1224 29010G18KT P6SM SCT050

Expired

Wind
  • 290° at 10 KTS
  • {Gusting to 18 KTS
Cloud Levels
  • Scattered at 5,000' AGL

Jul-12@
01:00 UTC

Jul-12 @ 01:00 UTC

Jul-12@
16:00 UTC

Jul-12 @ 16:00 UTC

FM120100 28004KT P6SM SKC

Expired

Wind
  • 280° at 4 KTS
Cloud Levels
  • Clear skies

Jul-12@
16:00 UTC

Jul-12 @ 16:00 UTC

Jul-13@
00:00 UTC

Jul-13 @ 00:00 UTC

FM121600 35012G20KT P6SM BKN040

From

From Standard forecast or significant change

Wind
  • 350° at 12 KTS
  • {Gusting to 20 KTS
Cloud Levels
  • Broken at 4,000' AGL